createdAt,value
2022-10-28T00:01:11.205Z,4.00
2022-10-28T00:03:40.325Z,4.57
2022-10-28T00:06:27.141Z,3.83
2022-10-28T00:08:53.862Z,4.32
2022-10-28T00:11:32.675Z,3.63
2022-10-28T00:14:01.857Z,4.45
2022-10-28T00:16:33.768Z,3.70
2022-10-28T00:19:01.785Z,3.70
2022-10-28T00:21:30.946Z,4.03
2022-10-28T00:23:58.352Z,3.85
2022-10-28T00:26:28.348Z,3.65
2022-10-28T00:28:57.860Z,3.70
2022-10-28T00:31:26.940Z,3.80
2022-10-28T00:33:54.015Z,4.20
2022-10-28T00:36:29.840Z,4.07
2022-10-28T00:38:57.006Z,3.83
2022-10-28T00:41:35.506Z,4.22
2022-10-28T00:44:23.515Z,3.97
2022-10-28T00:46:53.329Z,4.50
2022-10-28T00:49:19.833Z,4.32
2022-10-28T00:51:49.025Z,4.15
2022-10-28T00:54:17.591Z,4.13
2022-10-28T00:56:48.274Z,4.30
2022-10-28T00:59:36.578Z,4.18
2022-10-28T01:02:05.291Z,3.42
2022-10-28T01:04:32.100Z,3.95
2022-10-28T01:07:01.496Z,4.15
2022-10-28T01:12:10.044Z,4.22
2022-10-28T01:15:00.339Z,4.25
2022-10-28T01:17:29.609Z,4.20
2022-10-28T01:20:13.741Z,4.05
2022-10-28T01:22:52.656Z,4.50
2022-10-28T01:25:44.110Z,4.18
2022-10-28T01:28:38.882Z,3.83
2022-10-28T01:31:42.495Z,3.90
2022-10-28T01:34:32.276Z,4.45
2022-10-28T01:36:58.752Z,4.30
2022-10-28T01:39:34.068Z,4.03
2022-10-28T01:42:30.667Z,3.95
2022-10-28T01:45:00.230Z,4.50
2022-10-28T01:47:33.408Z,3.58
2022-10-28T01:50:08.741Z,3.88
2022-10-28T01:52:37.859Z,4.40
2022-10-28T01:55:25.545Z,3.40
2022-10-28T01:57:54.698Z,3.40
2022-10-28T02:00:21.536Z,4.68
2022-10-28T02:02:50.844Z,4.10
2022-10-28T02:05:39.526Z,4.15
2022-10-28T02:08:18.275Z,4.00
2022-10-28T02:11:12.986Z,3.67
2022-10-28T02:13:45.481Z,3.55
2022-10-28T02:16:37.289Z,3.53
2022-10-28T02:19:13.084Z,3.60
2022-10-28T02:22:02.972Z,3.90
2022-10-28T02:25:08.405Z,3.78
2022-10-28T02:27:59.104Z,4.10
2022-10-28T02:30:32.222Z,3.53
2022-10-28T02:33:06.642Z,4.00
2022-10-28T02:35:42.664Z,4.00
2022-10-28T02:38:14.117Z,4.20
2022-10-28T02:40:44.467Z,3.45
2022-10-28T02:43:13.368Z,4.13
2022-10-28T02:45:46.972Z,3.72
2022-10-28T02:48:18.910Z,4.05
2022-10-28T02:50:54.016Z,3.80
2022-10-28T02:56:02.360Z,3.60
2022-10-28T02:58:29.725Z,4.10
2022-10-28T03:00:56.292Z,3.80
2022-10-28T03:03:23.046Z,4.32
2022-10-28T03:05:49.578Z,3.38
2022-10-28T03:08:16.202Z,3.85
2022-10-28T03:10:42.818Z,4.00
2022-10-28T03:13:09.427Z,4.35
2022-10-28T03:15:36.020Z,4.00
2022-10-28T03:18:02.689Z,3.78
2022-10-28T03:20:29.265Z,3.50
2022-10-28T03:22:56.130Z,3.75
2022-10-28T03:25:22.895Z,3.97
2022-10-28T03:27:49.433Z,4.00
2022-10-28T03:30:18.526Z,4.00
2022-10-28T03:32:45.150Z,3.85
2022-10-28T03:35:11.758Z,3.85
2022-10-28T03:37:41.379Z,3.80
2022-10-28T03:40:08.316Z,3.88
2022-10-28T03:42:37.559Z,3.47
2022-10-28T03:45:07.855Z,4.32
2022-10-28T03:47:35.004Z,3.60
2022-10-28T03:50:02.054Z,4.63
2022-10-28T03:52:28.781Z,4.15
2022-10-28T03:54:55.333Z,4.22
2022-10-28T03:57:21.948Z,4.13
2022-10-28T03:59:48.582Z,4.07
2022-10-28T04:02:15.891Z,4.00
2022-10-28T04:04:42.599Z,3.70
2022-10-28T04:07:09.119Z,3.80
2022-10-28T04:09:35.747Z,3.95
2022-10-28T04:12:02.359Z,4.07
2022-10-28T04:14:28.992Z,4.30
2022-10-28T04:16:55.520Z,3.58
2022-10-28T04:19:22.056Z,4.35
2022-10-28T04:21:48.714Z,3.80
2022-10-28T04:24:15.284Z,4.07
2022-10-28T04:26:41.818Z,3.90
2022-10-28T04:29:08.417Z,3.92
2022-10-28T04:31:34.985Z,4.20
2022-10-28T04:34:03.671Z,3.78
2022-10-28T04:36:30.244Z,4.60
2022-10-28T04:38:56.900Z,4.82
2022-10-28T04:41:23.410Z,4.32
2022-10-28T04:43:49.940Z,4.10
2022-10-28T04:46:16.552Z,4.00
2022-10-28T04:48:43.251Z,4.53
2022-10-28T04:51:09.811Z,3.92
2022-10-28T04:53:36.415Z,3.50
2022-10-28T04:56:03.006Z,4.35
2022-10-28T04:58:29.590Z,4.10
2022-10-28T05:00:56.236Z,3.83
2022-10-28T05:03:22.932Z,4.10
2022-10-28T05:05:49.536Z,4.03
2022-10-28T05:08:16.115Z,3.83
2022-10-28T05:10:42.681Z,3.90
2022-10-28T05:13:09.270Z,4.25
2022-10-28T05:15:35.834Z,3.72
2022-10-28T05:18:02.387Z,4.00
2022-10-28T05:20:28.987Z,4.47
2022-10-28T05:22:57.034Z,4.80
2022-10-28T05:25:24.719Z,5.40
2022-10-28T05:27:51.366Z,4.40
2022-10-28T05:30:18.855Z,5.95
2022-10-28T05:32:45.451Z,6.18
2022-10-28T05:35:12.319Z,5.28
2022-10-28T05:37:38.871Z,4.30
2022-10-28T05:40:05.918Z,3.92
2022-10-28T05:42:32.517Z,4.50
2022-10-28T05:44:59.142Z,4.25
2022-10-28T05:47:25.777Z,4.03
2022-10-28T05:49:52.350Z,3.72
2022-10-28T05:52:18.918Z,4.53
2022-10-28T05:54:45.450Z,3.40
2022-10-28T05:57:12.037Z,4.00
2022-10-28T05:59:38.641Z,3.55
2022-10-28T06:02:05.239Z,4.03
2022-10-28T06:04:33.031Z,3.50
2022-10-28T06:06:59.570Z,4.00
2022-10-28T06:09:28.652Z,3.90
2022-10-28T06:11:53.706Z,4.20
2022-10-28T06:14:20.233Z,3.63
2022-10-28T06:16:46.777Z,3.50
2022-10-28T06:19:13.376Z,4.55
2022-10-28T06:21:40.110Z,4.22
2022-10-28T06:24:11.229Z,4.30
2022-10-28T06:26:39.402Z,4.32
2022-10-28T06:29:09.293Z,3.95
2022-10-28T06:31:42.490Z,4.80
2022-10-28T06:34:09.599Z,4.30
2022-10-28T06:36:36.711Z,3.95
2022-10-28T06:39:03.891Z,4.32
2022-10-28T06:41:30.694Z,4.28
2022-10-28T06:43:57.343Z,4.07
2022-10-28T06:46:23.988Z,3.92
2022-10-28T06:48:54.536Z,3.40
2022-10-28T06:51:21.164Z,3.70
2022-10-28T06:53:51.835Z,3.67
2022-10-28T06:56:18.759Z,3.83
2022-10-28T06:58:50.817Z,3.97
2022-10-28T07:01:17.906Z,3.80
2022-10-28T07:03:44.713Z,3.92
2022-10-28T07:06:11.337Z,3.92
2022-10-28T07:08:37.939Z,4.15
2022-10-28T07:11:04.705Z,4.22
2022-10-28T07:13:31.438Z,4.20
2022-10-28T07:15:59.992Z,3.97
2022-10-28T07:18:29.372Z,4.57
2022-10-28T07:23:26.789Z,3.53
2022-10-28T07:25:55.082Z,3.72
2022-10-28T07:28:23.576Z,3.35
2022-10-28T07:30:50.451Z,3.60
2022-10-28T07:33:17.022Z,3.88
2022-10-28T07:35:44.356Z,3.38
2022-10-28T07:38:11.258Z,3.10
2022-10-28T07:40:38.236Z,3.30
2022-10-28T07:43:04.789Z,3.22
2022-10-28T07:45:31.557Z,3.47
2022-10-28T07:47:58.107Z,3.65
2022-10-28T07:50:24.640Z,3.97
2022-10-28T07:52:51.398Z,3.10
2022-10-28T07:55:18.380Z,3.25
2022-10-28T07:57:44.912Z,3.45
2022-10-28T08:00:11.772Z,3.42
2022-10-28T08:02:38.551Z,2.90
2022-10-28T08:05:05.543Z,3.17
2022-10-28T08:07:34.867Z,3.20
2022-10-28T08:10:04.919Z,3.20
2022-10-28T08:12:31.585Z,3.17
2022-10-28T08:14:58.217Z,3.20
2022-10-28T08:17:24.866Z,3.35
2022-10-28T08:19:51.469Z,3.20
2022-10-28T08:22:18.203Z,2.88
2022-10-28T08:24:44.882Z,3.00
2022-10-28T08:27:11.532Z,3.05
2022-10-28T08:29:38.197Z,3.45
2022-10-28T08:32:08.107Z,3.38
2022-10-28T08:34:36.881Z,2.60
2022-10-28T08:37:06.266Z,2.80
2022-10-28T08:39:32.889Z,2.50
2022-10-28T08:42:22.680Z,3.10
2022-10-28T08:45:15.321Z,2.88
2022-10-28T08:47:45.341Z,3.30
2022-10-28T08:50:18.441Z,3.20
2022-10-28T08:53:05.565Z,2.83
2022-10-28T08:55:37.257Z,2.80
2022-10-28T08:58:12.090Z,2.90
2022-10-28T09:00:40.159Z,3.33
2022-10-28T09:03:12.650Z,3.10
2022-10-28T09:05:41.253Z,3.00
2022-10-28T09:08:19.318Z,2.70
2022-10-28T09:11:17.870Z,2.50
2022-10-28T09:14:18.731Z,2.47
2022-10-28T09:16:51.121Z,3.00
2022-10-28T09:19:41.007Z,3.33
2022-10-28T09:22:45.758Z,2.65
2022-10-28T09:25:53.996Z,2.60
2022-10-28T09:28:42.001Z,2.67
2022-10-28T09:31:37.896Z,2.45
2022-10-28T09:34:44.297Z,3.00
2022-10-28T09:37:25.994Z,3.10
2022-10-28T09:39:56.948Z,2.78
2022-10-28T09:42:49.692Z,2.55
2022-10-28T09:45:30.548Z,2.97
2022-10-28T09:48:06.013Z,2.70
2022-10-28T09:50:33.243Z,3.20
2022-10-28T09:53:18.129Z,3.30
2022-10-28T09:55:44.880Z,3.15
2022-10-28T09:58:13.133Z,3.20
2022-10-28T10:00:40.041Z,3.63
2022-10-28T10:03:06.671Z,3.15
2022-10-28T10:05:38.382Z,2.78
2022-10-28T10:08:05.760Z,3.40
2022-10-28T10:10:51.094Z,3.22
2022-10-28T10:13:23.962Z,2.70
2022-10-28T10:16:13.657Z,2.75
2022-10-28T10:18:46.899Z,2.95
2022-10-28T10:21:14.675Z,3.13
2022-10-28T10:23:41.435Z,2.88
2022-10-28T10:26:12.652Z,2.92
2022-10-28T10:28:47.553Z,3.00
2022-10-28T10:31:21.070Z,2.45
2022-10-28T10:33:53.630Z,2.75
2022-10-28T10:36:23.775Z,3.15
2022-10-28T10:38:56.094Z,3.08
2022-10-28T10:41:43.781Z,2.35
2022-10-28T10:44:22.526Z,3.17
2022-10-28T10:46:55.440Z,3.28
2022-10-28T10:49:22.000Z,2.90
2022-10-28T10:51:58.286Z,3.22
2022-10-28T10:54:31.922Z,3.05
2022-10-28T10:57:08.784Z,3.08
2022-10-28T10:59:37.888Z,2.85
2022-10-28T11:02:18.020Z,3.17
2022-10-28T11:04:52.021Z,3.15
2022-10-28T11:07:18.658Z,2.72
2022-10-28T11:09:48.955Z,2.67
2022-10-28T11:12:15.700Z,2.53
2022-10-28T11:14:56.037Z,3.08
2022-10-28T11:17:28.776Z,2.80
2022-10-28T11:19:58.512Z,2.58
2022-10-28T11:22:40.053Z,2.58
2022-10-28T11:25:12.732Z,2.70
2022-10-28T11:28:13.540Z,2.78
2022-10-28T11:30:57.972Z,2.80
2022-10-28T11:34:01.747Z,2.83
2022-10-28T11:37:09.689Z,2.40
2022-10-28T11:39:48.395Z,3.08
2022-10-28T11:43:03.732Z,3.10
2022-10-28T11:46:02.357Z,2.88
2022-10-28T11:49:02.192Z,2.50
2022-10-28T11:51:42.799Z,2.80
2022-10-28T11:54:22.434Z,2.50
2022-10-28T11:57:07.473Z,2.85
2022-10-28T11:59:58.670Z,3.00
2022-10-28T12:02:49.442Z,2.80
2022-10-28T12:05:44.955Z,2.13
2022-10-28T12:08:21.688Z,3.10
2022-10-28T12:11:12.830Z,2.65
2022-10-28T12:14:08.461Z,2.33
2022-10-28T12:16:40.751Z,3.13
2022-10-28T12:19:19.979Z,2.63
2022-10-28T12:24:22.235Z,2.63
2022-10-28T12:26:53.436Z,2.58
2022-10-28T12:29:33.893Z,2.80
2022-10-28T12:32:05.664Z,2.60
2022-10-28T12:34:44.347Z,2.92
2022-10-28T12:37:24.598Z,2.38
2022-10-28T12:40:07.726Z,3.20
2022-10-28T12:42:40.003Z,3.03
2022-10-28T12:45:15.610Z,2.83
2022-10-28T12:47:50.081Z,2.90
2022-10-28T12:50:25.715Z,2.38
2022-10-28T12:53:01.471Z,2.85
2022-10-28T12:55:50.609Z,2.58
2022-10-28T12:58:38.464Z,3.33
2022-10-28T13:01:12.572Z,2.58
2022-10-28T13:03:40.599Z,2.35
2022-10-28T13:06:41.954Z,2.90
2022-10-28T13:09:52.869Z,2.85
2022-10-28T13:12:30.771Z,2.25
2022-10-28T13:15:30.800Z,2.65
2022-10-28T13:18:28.387Z,2.65
2022-10-28T13:21:05.203Z,3.33
2022-10-28T13:23:55.184Z,3.38
2022-10-28T13:26:24.269Z,2.78
2022-10-28T13:31:20.467Z,3.20
2022-10-28T13:34:00.366Z,2.95
2022-10-28T13:36:30.536Z,3.00
2022-10-28T13:39:01.464Z,2.40
2022-10-28T13:41:27.986Z,3.28
2022-10-28T13:43:54.508Z,2.83
2022-10-28T13:46:58.558Z,2.60
2022-10-28T13:49:28.968Z,2.60
2022-10-28T13:52:07.805Z,2.97
2022-10-28T13:54:43.757Z,2.55
2022-10-28T13:57:31.895Z,2.72
2022-10-28T14:00:00.873Z,2.83
2022-10-28T14:02:56.949Z,2.72
2022-10-28T14:05:36.163Z,2.00
2022-10-28T14:08:08.502Z,2.95
2022-10-28T14:10:39.847Z,2.70
2022-10-28T14:13:17.693Z,2.65
2022-10-28T14:15:45.487Z,3.10
2022-10-28T14:18:41.826Z,2.50
2022-10-28T14:21:02.350Z,2.47
2022-10-28T14:23:28.988Z,2.70
2022-10-28T14:25:56.211Z,2.65
2022-10-28T14:28:29.218Z,2.50
2022-10-28T14:31:07.687Z,3.05
2022-10-28T14:33:54.443Z,2.70
2022-10-28T14:36:20.949Z,2.75
2022-10-28T14:38:53.535Z,2.72
2022-10-28T14:41:44.669Z,3.72
2022-10-28T14:44:23.740Z,3.03
2022-10-28T14:47:27.618Z,2.63
2022-10-28T14:50:22.793Z,3.17
2022-10-28T14:52:51.632Z,3.35
2022-10-28T14:55:31.347Z,3.13
2022-10-28T14:58:19.587Z,2.80
2022-10-28T15:01:18.703Z,3.13
2022-10-28T15:04:12.193Z,3.38
2022-10-28T15:06:45.943Z,3.00
2022-10-28T15:09:28.316Z,2.95
2022-10-28T15:12:06.096Z,3.38
2022-10-28T15:14:39.028Z,2.90
2022-10-28T15:17:22.266Z,3.28
2022-10-28T15:19:52.267Z,3.13
2022-10-28T15:22:26.012Z,2.75
2022-10-28T15:25:14.127Z,3.13
2022-10-28T15:27:42.681Z,3.00
2022-10-28T15:30:20.906Z,3.25
2022-10-28T15:32:47.484Z,2.88
2022-10-28T15:35:36.082Z,2.70
2022-10-28T15:38:38.565Z,3.42
2022-10-28T15:41:26.611Z,2.70
2022-10-28T15:44:01.333Z,3.10
2022-10-28T15:46:29.812Z,3.30
2022-10-28T15:49:01.536Z,2.50
2022-10-28T15:51:28.851Z,3.10
2022-10-28T15:54:11.603Z,3.05
2022-10-28T15:56:55.634Z,3.30
2022-10-28T15:59:24.554Z,3.42
2022-10-28T16:01:51.315Z,2.60
2022-10-28T16:04:23.986Z,2.95
2022-10-28T16:06:54.543Z,3.47
2022-10-28T16:09:35.816Z,2.97
2022-10-28T16:12:13.183Z,3.38
2022-10-28T16:14:42.569Z,2.90
2022-10-28T16:17:19.407Z,3.22
2022-10-28T16:20:03.383Z,2.90
2022-10-28T16:22:34.328Z,2.80
2022-10-28T16:25:00.928Z,3.53
2022-10-28T16:27:31.150Z,2.88
2022-10-28T16:29:58.335Z,2.97
2022-10-28T16:32:49.119Z,2.80
2022-10-28T16:35:18.668Z,3.08
2022-10-28T16:37:48.394Z,2.83
2022-10-28T16:43:04.796Z,2.92
2022-10-28T16:45:31.439Z,3.15
2022-10-28T16:47:58.121Z,2.60
2022-10-28T16:50:24.965Z,2.88
2022-10-28T16:52:52.918Z,3.90
2022-10-28T16:55:20.008Z,3.22
2022-10-28T16:57:46.613Z,3.63
2022-10-28T17:00:14.238Z,3.13
2022-10-28T17:02:41.485Z,3.22
2022-10-28T17:05:34.631Z,3.83
2022-10-28T17:08:05.802Z,3.42
2022-10-28T17:10:35.490Z,3.50
2022-10-28T17:13:03.111Z,3.00
2022-10-28T17:15:29.746Z,3.20
2022-10-28T17:17:57.973Z,3.28
2022-10-28T17:20:24.486Z,3.22
2022-10-28T17:22:51.076Z,3.80
2022-10-28T17:25:17.785Z,3.65
2022-10-28T17:27:48.454Z,3.90
2022-10-28T17:30:17.434Z,3.28
2022-10-28T17:32:54.165Z,3.45
2022-10-28T17:35:22.514Z,3.45
2022-10-28T17:37:49.493Z,3.58
2022-10-28T17:40:16.174Z,3.55
2022-10-28T17:42:42.808Z,3.30
2022-10-28T17:45:10.339Z,3.50
2022-10-28T17:47:37.022Z,3.45
2022-10-28T17:50:04.158Z,3.45
2022-10-28T17:52:35.621Z,3.92
2022-10-28T17:55:05.479Z,3.58
2022-10-28T17:57:32.078Z,3.50
2022-10-28T17:59:58.686Z,3.72
2022-10-28T18:02:25.574Z,3.53
2022-10-28T18:04:52.239Z,2.88
2022-10-28T18:07:18.810Z,3.30
2022-10-28T18:09:45.382Z,3.15
2022-10-28T18:12:12.735Z,3.75
2022-10-28T18:14:39.602Z,3.10
2022-10-28T18:17:06.280Z,3.47
2022-10-28T18:19:32.816Z,3.20
2022-10-28T18:21:59.480Z,3.53
2022-10-28T18:24:26.393Z,3.50
2022-10-28T18:26:54.879Z,3.30
2022-10-28T18:29:21.522Z,2.90
2022-10-28T18:31:48.154Z,3.88
2022-10-28T18:34:14.788Z,3.50
2022-10-28T18:36:41.417Z,4.05
2022-10-28T18:39:08.692Z,3.50
2022-10-28T18:41:41.568Z,3.35
2022-10-28T18:44:17.126Z,3.70
2022-10-28T18:46:45.375Z,3.72
2022-10-28T18:49:12.633Z,3.40
2022-10-28T18:51:39.317Z,4.00
2022-10-28T18:54:06.184Z,3.63
2022-10-28T18:56:34.288Z,4.00
2022-10-28T18:59:03.607Z,3.40
2022-10-28T19:01:31.932Z,3.65
2022-10-28T19:04:00.966Z,3.67
2022-10-28T19:06:32.454Z,3.33
2022-10-28T19:09:02.085Z,3.63
2022-10-28T19:11:31.240Z,3.53
2022-10-28T19:13:59.810Z,3.25
2022-10-28T19:16:27.664Z,4.23
2022-10-28T19:18:58.905Z,3.75
2022-10-28T19:21:27.135Z,3.97
2022-10-28T19:23:54.636Z,3.78
2022-10-28T19:26:23.067Z,4.00
2022-10-28T19:28:51.559Z,4.13
2022-10-28T19:31:23.729Z,3.97
2022-10-28T19:33:52.571Z,4.55
2022-10-28T19:36:23.209Z,3.83
2022-10-28T19:38:53.840Z,4.03
2022-10-28T19:41:23.531Z,4.13
2022-10-28T19:43:57.797Z,4.00
2022-10-28T19:46:26.388Z,4.15
2022-10-28T19:48:55.671Z,4.07
2022-10-28T19:53:52.169Z,4.20
2022-10-28T19:56:20.153Z,4.20
2022-10-28T19:58:49.208Z,4.03
2022-10-28T20:01:16.716Z,3.72
2022-10-28T20:03:48.964Z,3.75
2022-10-28T20:06:17.474Z,3.97
2022-10-28T20:08:49.473Z,4.00
2022-10-28T20:11:24.747Z,3.25
2022-10-28T20:13:55.119Z,3.60
2022-10-28T20:16:22.265Z,4.13
2022-10-28T20:18:49.174Z,3.70
2022-10-28T20:21:20.723Z,4.05
2022-10-28T20:23:53.940Z,4.32
2022-10-28T20:26:26.073Z,3.72
2022-10-28T20:28:52.925Z,3.80
2022-10-28T20:31:22.390Z,3.80
2022-10-28T20:33:57.849Z,3.65
2022-10-28T20:36:29.424Z,4.00
2022-10-28T20:38:58.306Z,4.35
2022-10-28T20:41:26.622Z,4.00
2022-10-28T20:43:53.860Z,3.40
2022-10-28T20:46:21.945Z,3.97
2022-10-28T20:48:48.917Z,4.68
2022-10-28T20:51:15.793Z,3.92
2022-10-28T20:53:43.207Z,4.53
2022-10-28T20:56:20.034Z,3.97
2022-10-28T20:58:47.224Z,3.75
2022-10-28T21:01:19.931Z,4.40
2022-10-28T21:03:48.121Z,4.47
2022-10-28T21:06:16.456Z,4.45
2022-10-28T21:08:43.814Z,4.65
2022-10-28T21:11:13.378Z,4.22
2022-10-28T21:13:40.610Z,3.88
2022-10-28T21:16:09.360Z,4.80
2022-10-28T21:18:37.825Z,4.25
2022-10-28T21:21:05.418Z,4.50
2022-10-28T21:23:32.691Z,4.20
2022-10-28T21:26:01.597Z,4.03
2022-10-28T21:28:30.181Z,3.70
2022-10-28T21:31:07.245Z,4.27
2022-10-28T21:33:35.548Z,4.65
2022-10-28T21:36:05.176Z,3.67
2022-10-28T21:38:32.078Z,4.40
2022-10-28T21:41:18.863Z,4.35
2022-10-28T21:43:47.911Z,3.83
2022-10-28T21:46:15.026Z,4.10
2022-10-28T21:48:41.777Z,4.05
2022-10-28T21:51:13.520Z,4.80
2022-10-28T21:53:42.428Z,5.72
2022-10-28T21:56:18.854Z,4.75
2022-10-28T21:58:48.074Z,4.55
2022-10-28T22:01:20.600Z,5.00
2022-10-28T22:03:47.521Z,5.05
2022-10-28T22:06:14.192Z,5.20
2022-10-28T22:08:41.159Z,3.92
2022-10-28T22:11:12.318Z,4.15
2022-10-28T22:13:38.956Z,4.20
2022-10-28T22:16:08.027Z,4.60
2022-10-28T22:18:36.113Z,4.00
2022-10-28T22:21:07.363Z,4.25
2022-10-28T22:23:34.152Z,4.32
2022-10-28T22:26:02.188Z,4.15
2022-10-28T22:28:28.872Z,4.60
2022-10-28T22:30:59.772Z,4.53
2022-10-28T22:33:26.640Z,4.25
2022-10-28T22:36:00.134Z,4.13
2022-10-28T22:38:27.154Z,4.28
2022-10-28T22:41:16.332Z,4.13
2022-10-28T22:43:44.579Z,4.45
2022-10-28T22:46:13.311Z,4.32
2022-10-28T22:48:39.971Z,4.80
2022-10-28T22:51:07.070Z,3.85
2022-10-28T22:53:33.670Z,4.13
2022-10-28T22:56:00.254Z,4.03
2022-10-28T22:58:27.736Z,4.00
2022-10-28T23:00:54.361Z,4.15
2022-10-28T23:03:20.956Z,4.20
2022-10-28T23:05:47.591Z,4.63
2022-10-28T23:08:16.072Z,4.70
2022-10-28T23:10:42.742Z,4.40
2022-10-28T23:13:12.873Z,4.68
2022-10-28T23:15:39.580Z,4.10
2022-10-28T23:18:06.133Z,4.88
2022-10-28T23:20:34.792Z,4.32
2022-10-28T23:23:01.376Z,4.83
2022-10-28T23:25:27.976Z,5.22
2022-10-28T23:27:54.687Z,4.85
2022-10-28T23:30:21.600Z,4.93
2022-10-28T23:32:48.222Z,4.57
2022-10-28T23:35:14.988Z,5.10
2022-10-28T23:37:41.643Z,5.35
2022-10-28T23:42:41.649Z,5.07
2022-10-28T23:45:09.699Z,4.88
2022-10-28T23:47:36.543Z,4.78
2022-10-28T23:50:03.670Z,4.85
2022-10-28T23:52:30.198Z,4.85
2022-10-28T23:54:56.887Z,5.20
2022-10-28T23:57:23.454Z,5.45
2022-10-28T23:59:49.984Z,4.55
